Portada
METAR-TAF:

METAR-TAF

Aeroports :

Francistown, Botswana

latitud: 21-13S, longitud: 027-30E, altitud: 1001 m

Observació

L'informe es va fer fa 26 minuts, a les 17:00 UTC
Vent 3 kt del Sud/Sud-Est
Temperatura 26°C
Humitat 42%
Pressió 1016 hPa
Visibilitat 10 km o més
Escasses núvols a una alçada de 3000 ft
Núvols disperses a una alçada de 7000 ft

METAR: FBFT 311700Z 15003KT 9999 FEW030 SCT070 26/12 Q1016

Hora: 19:26 (17:26 UTC)

Pronòstic

L'informe es va fer fa 5 hores i 26 minuts, a les 12:00 UTC
Pronòstic vàlid del 31 a les 15 UTC al 31 a les 24 UTC
Vent 2 kt amb direcció variable
Visibilitat 10 km o més
sense núvols per sota de 1500 mi sense presència de cumulonimbus.

TAF: FBFT 311200Z 3115/3124 VRB02KT CAVOK

Observacions i pronòstics meteorològics de més de 4000 aeroports (METAR i TAF).

Les estacions disponibles són els punts grocs i vermells al mapa.

Posi el ratolí al punt desitjat per veure el nom de l'estació.

Feu clic per veure les observacions i els pronòstics meteorològics.

Per canviar el mapa: feu clic els botons verds amb una creu de color negre per apropar; al botó verd amb un guió per allunyar la imatge; o en les fletxes verdes per a mapes adjacents.


METAR-TAF: